NOAA/GLERL Met Station at Michigan City, IN

Previous 5 days (top of hour only)
See slso Previous 3 Hours (5 minute increments)
Jump down to Data
Switch to [English][Metric]
Zoom: Click and drag, Pan: shift-click and drag, Unzoom: double-click, Unzoom All





Zoom: Click and drag, Pan: shift-click and drag, Unzoom: double-click, Unzoom All

Note: Speed = mean wind during 5-minute period at top of hour,
Gust = max wind during 5-minute period at top of hour,
Peak = max wind during entire hour.
• See also 5-day windrose plot
Jump up to Graphs
Previous 5 days (top of hour only)
See slso Previous 3 Hours (5 minute increments)
                  Wind  Wind  Wind   Air   Dew   Rel     Sta   PAR
                   Spd   Gst   Dir  Temp    Pt   Hum    Pres uE/m2/
YYYY-MM-DD   CDT   kts   kts   deg     F     F     %   in Hg   sec
2015-08-01 02:00  13.8  15.6   278  73.9  61.0  63.4   29.36     0
2015-08-01 01:00  14.2  16.5   276  74.5  59.4  58.9   29.36     0
2015-08-01 00:00  11.9  13.0   272  74.8  60.0  59.4   29.36     0
2015-07-31 23:00  11.1  12.4   275  74.5  62.3  65.4   29.36     0
2015-07-31 22:00  10.9  12.1   290  75.2  60.8  60.4   29.36     0
2015-07-31 21:00   8.6   9.5   319  74.1  63.4  68.8   29.34     0
2015-07-31 20:00  11.3  12.8   332  74.8  62.2  64.2   29.33    25
2015-07-31 19:00  11.7  13.4   331  76.3  61.3  59.2   29.33   327
2015-07-31 18:00  14.4  16.9   325  77.4  62.1  58.8   29.33   734
2015-07-31 17:00  14.8  16.7   310  78.3  60.7  54.2   29.33  1157
2015-07-31 16:00   9.1  10.5   292  79.9  61.9  53.7   29.34  1531
2015-07-31 15:00   4.7   6.0   255  79.2  61.8  54.8   29.35  1842
2015-07-31 14:00   5.6   6.2   257  79.0  64.6  60.9   29.36  2042
2015-07-31 13:00   6.8   8.4   244  76.6  65.7  68.5   29.37  2111
2015-07-31 12:00   8.9   9.9   253  75.6  65.7  71.0   29.39  2038
2015-07-31 11:00  10.7  11.9   250  75.9  63.5  64.9   29.39  1790
2015-07-31 10:00  13.0  14.6   209  75.6  61.8  61.9   29.39  1568
2015-07-31 09:00  14.6  16.3   224  74.1  61.5  64.2   29.41   683
2015-07-31 08:00  11.5  13.0   211  72.7  61.1  66.5   29.42   762
2015-07-31 07:00   7.8   8.9   186  71.1  61.7  71.8   29.41   369
2015-07-31 06:00   8.9   9.9   186  71.1  62.4  73.7   29.41    45
2015-07-31 05:00   8.0  11.9   193  71.4  64.4  78.1   29.41     0
2015-07-31 04:00  10.7  11.9   233  73.9  65.1  73.5   29.41     0
2015-07-31 03:00  12.1  13.6   248  74.7  64.6  70.4   29.41     0
2015-07-31 02:00  11.7  12.8   259  75.0  65.6  72.1   29.41     0
2015-07-31 01:00  13.6  14.6   224  75.0  66.2  73.6   29.40     0
2015-07-31 00:00  11.7  13.6   215  75.9  65.5  69.7   29.40     0
2015-07-30 23:00   8.7   9.7   183  75.2  61.0  60.9   29.40     0
2015-07-30 22:00   7.4   7.8   191  76.3  62.2  61.3   29.40     0
2015-07-30 21:00   5.8   6.6   187  77.4  58.6  51.8   29.39     0
2015-07-30 20:00   5.1   5.1   208  80.2  51.5  36.2   29.39    27
2015-07-30 19:00   3.3   3.9   214  80.1  52.1  37.3   29.39   325
2015-07-30 18:00   2.7   2.9   212  79.5  53.7  40.3   29.41   719
2015-07-30 17:00   2.5   2.7   226  80.2  53.4  38.8   29.42  1150
2015-07-30 16:00   4.1   4.5   213  79.2  52.7  39.2   29.44  1544
2015-07-30 15:00   5.2   5.4   210  78.8  50.7  36.9   29.45  1853
2015-07-30 14:00   6.2   6.6   211  76.6  59.8  55.4   29.46  2055
2015-07-30 13:00   9.1   9.7   228  75.0  62.0  63.5   29.46  2125
2015-07-30 12:00  10.3  11.9   232  74.1  62.1  65.6   29.46  2053
2015-07-30 11:00  10.5  11.9   241  72.7  62.0  68.8   29.46  1751
2015-07-30 10:00  12.2  13.6   240  72.0  62.0  70.5   29.45  1551
2015-07-30 09:00  14.6  15.9   249  71.6  61.8  70.7   29.44  1186
2015-07-30 08:00  16.9  18.3   252  71.8  61.7  70.2   29.44   776
2015-07-30 07:00  16.9  19.2   253  72.5  61.8  68.6   29.43   367
2015-07-30 06:00  19.2  22.6   257  72.7  61.7  68.1   29.41    49
2015-07-30 05:00  14.8  16.7   237  72.3  63.0  72.0   29.40     0
2015-07-30 04:00  15.0  16.7   243  73.0  62.3  68.5   29.40     0
2015-07-30 03:00  14.0  15.4   239  73.4  62.9  69.3   29.39     0
2015-07-30 02:00  12.6  13.6   232  73.2  65.2  75.7   29.39     0
2015-07-30 01:00  16.5  17.9   231  74.5  62.6  66.0   29.39     0
2015-07-30 00:00  16.3  18.3   224  75.2  62.6  64.4   29.41     0
2015-07-29 23:00  13.6  14.8   231  75.4  64.5  68.5   29.39     0
2015-07-29 22:00  14.4  15.2   249  76.5  64.3  65.6   29.40     0
2015-07-29 21:00  16.3  18.9   258  77.7  62.3  58.4   29.38     0
2015-07-29 20:00  10.3  11.9   255  78.1  65.3  64.3   29.36    30
2015-07-29 19:00   4.9   5.2   241  77.5  64.6  63.8   29.36   341
2015-07-29 18:00   3.5   3.7   241  78.4  64.2  61.0   29.36   747
2015-07-29 17:00   2.5   3.5   269  81.1  64.9  57.2   29.36  1272
2015-07-29 15:00   5.4   6.0   339  80.1  67.1  64.2   29.38  1873
2015-07-29 14:00   0.6   1.6   266  79.2  69.8  72.6   29.38  2101
2015-07-29 13:00   6.4   7.0   318  76.6  71.3  83.4   29.39  1730
2015-07-29 12:00  10.5  11.7   275  76.5  72.4  87.1   29.39   751
2015-07-29 11:00   9.9  10.9   243  74.8  72.8  93.1   29.37   577
2015-07-29 10:00   8.7   9.3   214  74.7  72.2  91.8   29.36   816
2015-07-29 09:00  13.6  14.8   228  75.2  71.5  88.2   29.35   405
2015-07-29 08:00   8.0   8.4   225  73.8  72.5  95.6   29.35   379
2015-07-29 07:00   4.5   5.4   198  74.3  73.2  96.3   29.34   155
2015-07-29 06:00   7.0   7.8   228  75.4  73.1  92.5   29.34     8
2015-07-29 05:00   8.2   9.9   174  77.5  72.2  83.4   29.32     0
2015-07-29 04:00   9.7  10.7   222  75.9  71.9  87.2   29.33     0
2015-07-29 03:00   7.4   8.9   138  78.6  72.0  79.7   29.31     0
2015-07-29 02:00   7.6  11.1   146  79.5  71.1  75.0   29.31     0
2015-07-29 01:00   7.2   8.4   141  79.9  71.5  75.1   29.34     0
2015-07-29 00:00   6.0   7.4   133  80.4  71.1  72.8   29.36     0
2015-07-28 23:00   5.4   7.4   127  81.0  71.2  71.8   29.35     0
2015-07-28 22:00   6.0   7.0   126  82.2  70.9  68.2   29.36     0
2015-07-28 21:00   5.4   6.6   122  83.7  71.0  65.2   29.35     0
2015-07-28 20:00   4.9   6.8   109  84.9  70.7  61.8   29.32    21
2015-07-28 19:00   7.0   9.1   139  86.0  69.8  57.9   29.32   158
2015-07-28 18:00   9.3  13.0   135  86.2  69.0  55.9   29.30   699
2015-07-28 17:00  13.4  16.9    92  86.0  68.7  55.7   29.28  1247
2015-07-28 16:00   8.6   9.3    20  81.5  68.7  64.7   29.34  1404
2015-07-28 15:00   3.7   6.2   331  82.8  69.8  64.3   29.36  1757
2015-07-28 14:00   5.6  10.5   168  83.5  65.9  54.9   29.37  1220
2015-07-28 13:00   7.2  11.7   120  84.0  65.5  53.1   29.39  1489
2015-07-28 12:00   6.2   9.5   141  83.1  64.6  53.0   29.41  2065
2015-07-28 11:00   9.1  11.3    97  82.2  62.8  51.3   29.40  1854
2015-07-28 10:00   8.9  11.5   109  80.8  62.4  52.9   29.39  1532
2015-07-28 09:00   6.4   8.2   113  79.0  62.3  56.1   29.39  1162
2015-07-28 08:00   8.9  10.5   113  75.9  61.1  59.5   29.41   754
2015-07-28 07:00   6.8   8.0   114  72.7  60.8  65.8   29.40   376
2015-07-28 06:00   6.6   7.8   111  70.5  61.1  71.6   29.39    51
2015-07-28 05:00   8.4  10.5   106  70.9  61.5  71.9   29.39     0
2015-07-28 04:00   7.6   8.7   108  72.1  61.4  68.5   29.39     0
2015-07-28 03:00   6.2   8.6   106  72.7  61.4  67.3   29.39     0
2015-07-28 02:00   6.6   8.4   104  73.8  61.8  65.8   29.39     0
2015-07-28 01:00   8.2   9.9    85  73.4  63.4  70.6   29.39     0
2015-07-28 00:00   1.7   2.1    60  72.0  67.9  86.7   29.41     0
2015-07-27 23:00   1.9   2.3   107  73.2  68.9  86.0   29.42     0
2015-07-27 22:00   9.5  10.7    40  73.0  70.9  92.9   29.40     0
2015-07-27 21:00   8.2   8.7    34  73.6  71.4  92.9   29.40     0
2015-07-27 20:00  11.5  12.4    37  73.9  70.0  87.4   29.39    23
2015-07-27 19:00   9.1  10.7    25  75.0  69.3  82.1   29.38   161